Time;durP1;ratioP1;P1;durP2;ratioP2;P2;SDS_P1;SDS_P2;PMS_P1;PMS_P2;Temp;Humidity;BMP_temperature;BMP_pressure;BME280_temperature;BME280_humidity;BME280_pressure;Samples;Min_cycle;Max_cycle;Signal;HPM_P1;HPM_P2
2021/04/23 00:01:06;;;;;;;7.68;4.07;;;9.20;99.90;;;;;;5074262;28;20032;-81
2021/04/23 00:03:45;;;;;;;10.70;5.25;;;9.10;99.90;;;;;;5068299;28;20085;-81
2021/04/23 00:06:12;;;;;;;10.32;4.70;;;9.10;99.90;;;;;;5087339;28;20489;-81
2021/04/23 00:08:40;;;;;;;10.50;4.68;;;9.00;99.90;;;;;;5069956;28;20047;-81
2021/04/23 00:11:07;;;;;;;9.25;4.72;;;9.00;99.90;;;;;;5073646;28;20117;-81
2021/04/23 00:13:35;;;;;;;11.38;5.43;;;9.00;99.90;;;;;;5071783;28;20672;-81
2021/04/23 00:16:01;;;;;;;10.43;5.25;;;8.90;99.90;;;;;;5053805;28;20159;-81
2021/04/23 00:18:27;;;;;;;11.27;5.35;;;8.90;99.90;;;;;;5076939;28;20470;-81
2021/04/23 00:20:53;;;;;;;8.93;4.75;;;8.80;99.90;;;;;;5083198;28;20020;-81
2021/04/23 00:23:19;;;;;;;10.50;5.45;;;8.80;99.90;;;;;;5053345;28;20143;-81
2021/04/23 00:25:45;;;;;;;10.65;4.15;;;8.70;99.90;;;;;;5078374;28;20036;-81
2021/04/23 00:28:13;;;;;;;10.43;4.90;;;8.70;99.90;;;;;;5056555;28;20032;-81
2021/04/23 00:30:48;;;;;;;10.80;5.60;;;8.70;99.90;;;;;;5070211;28;20071;-81
2021/04/23 00:33:15;;;;;;;12.13;5.63;;;8.70;99.90;;;;;;5072089;28;20051;-82
2021/04/23 00:35:43;;;;;;;12.48;6.18;;;8.60;99.90;;;;;;5086243;28;20041;-81
2021/04/23 00:38:15;;;;;;;12.13;6.57;;;8.60;99.90;;;;;;5076643;28;20032;-81
2021/04/23 00:40:51;;;;;;;12.32;6.25;;;8.50;99.90;;;;;;5076450;28;20032;-81
2021/04/23 00:43:19;;;;;;;12.30;5.50;;;8.50;99.90;;;;;;5090243;28;20035;-81
2021/04/23 00:45:46;;;;;;;13.00;6.40;;;8.50;99.90;;;;;;5089980;28;20765;-81
2021/04/23 00:48:12;;;;;;;12.38;7.55;;;8.40;99.90;;;;;;5091661;28;20763;-81
2021/04/23 00:50:40;;;;;;;16.90;7.50;;;8.40;99.90;;;;;;5083278;28;20032;-81
2021/04/23 00:53:09;;;;;;;14.18;7.55;;;8.40;99.90;;;;;;5069984;28;20036;-82
2021/04/23 00:55:36;;;;;;;13.90;8.70;;;8.50;99.90;;;;;;5073626;28;20027;-82
2021/04/23 00:58:05;;;;;;;15.98;8.40;;;8.50;99.90;;;;;;5072056;28;20031;-81
2021/04/23 01:00:31;;;;;;;14.63;8.02;;;8.50;99.90;;;;;;5087799;28;20618;-81
2021/04/23 01:02:57;;;;;;;11.90;7.55;;;8.50;99.90;;;;;;5089828;28;20032;-81
2021/04/23 01:05:33;;;;;;;12.45;7.32;;;8.40;99.90;;;;;;5085529;28;20529;-81
2021/04/23 01:07:59;;;;;;;14.75;7.28;;;8.40;99.90;;;;;;5069915;28;20050;-81
2021/04/23 01:10:26;;;;;;;11.77;6.80;;;8.40;99.90;;;;;;5071595;28;20024;-81
2021/04/23 01:12:51;;;;;;;13.35;6.50;;;8.40;99.90;;;;;;5087331;28;20039;-81
2021/04/23 01:15:17;;;;;;;10.75;6.50;;;8.30;99.90;;;;;;5071066;28;20024;-82
2021/04/23 01:17:43;;;;;;;11.93;6.28;;;8.20;99.90;;;;;;5072698;28;20037;-82
2021/04/23 01:20:10;;;;;;;11.32;6.68;;;8.20;99.90;;;;;;5069470;28;20024;-81
2021/04/23 01:22:35;;;;;;;13.45;6.43;;;8.20;99.90;;;;;;5083154;28;20033;-81
2021/04/23 01:25:02;;;;;;;9.95;6.03;;;8.10;99.90;;;;;;5084935;28;20065;-81
2021/04/23 01:27:28;;;;;;;15.75;6.85;;;8.00;99.90;;;;;;5074297;28;20044;-81
2021/04/23 01:29:53;;;;;;;12.45;7.68;;;8.10;99.90;;;;;;5079315;28;20397;-81
2021/04/23 01:32:19;;;;;;;13.57;7.50;;;8.00;99.90;;;;;;5079021;28;20676;-81
2021/04/23 01:34:45;;;;;;;15.73;7.60;;;8.00;99.90;;;;;;5069099;28;20032;-81
2021/04/23 01:37:13;;;;;;;15.25;7.28;;;8.00;99.90;;;;;;5087845;28;20039;-81
2021/04/23 01:39:41;;;;;;;14.00;7.95;;;8.00;99.90;;;;;;5089315;28;20031;-82
2021/04/23 01:42:09;;;;;;;14.73;7.95;;;8.00;99.90;;;;;;5077655;28;20028;-81
2021/04/23 01:44:35;;;;;;;14.90;7.22;;;8.00;99.90;;;;;;5083636;28;20030;-81
2021/04/23 01:47:02;;;;;;;13.52;7.82;;;7.90;99.90;;;;;;5086717;28;20085;-81
2021/04/23 01:49:28;;;;;;;14.95;8.18;;;7.90;99.90;;;;;;5070275;28;20024;-81
2021/04/23 01:52:14;;;;;;;13.55;7.72;;;7.90;99.90;;;;;;5070324;28;20110;-81
2021/04/23 01:54:40;;;;;;;16.60;8.77;;;7.80;99.90;;;;;;5083987;28;20123;-81
2021/04/23 01:57:07;;;;;;;13.65;8.13;;;7.70;99.90;;;;;;5081515;28;20120;-81
2021/04/23 01:59:34;;;;;;;15.00;7.05;;;7.70;99.90;;;;;;5083100;28;20495;-81
2021/04/23 02:02:00;;;;;;;13.70;7.43;;;7.70;99.90;;;;;;5080357;28;20649;-81
2021/04/23 02:04:27;;;;;;;16.13;6.85;;;7.70;99.90;;;;;;5080433;28;20519;-82
2021/04/23 02:06:53;;;;;;;13.73;6.93;;;7.70;99.90;;;;;;5085498;28;20040;-81
2021/04/23 02:09:20;;;;;;;13.60;6.70;;;7.70;99.90;;;;;;5070728;28;20028;-81
2021/04/23 02:11:48;;;;;;;14.63;6.50;;;7.60;99.90;;;;;;5070245;28;20075;-82
2021/04/23 02:14:14;;;;;;;13.90;6.25;;;7.60;99.90;;;;;;5078713;28;20028;-81
2021/04/23 02:16:40;;;;;;;15.90;7.78;;;7.60;99.90;;;;;;5087965;28;20036;-82
2021/04/23 02:19:08;;;;;;;13.48;7.97;;;7.60;99.90;;;;;;5069648;28;20040;-81
2021/04/23 02:21:35;;;;;;;21.50;9.30;;;7.60;99.90;;;;;;5068433;28;20051;-81
2021/04/23 02:24:03;;;;;;;17.85;9.77;;;7.50;99.90;;;;;;5086991;28;20020;-82
2021/04/23 02:26:29;;;;;;;18.67;9.30;;;7.60;99.90;;;;;;5071990;28;20124;-82
2021/04/23 02:28:55;;;;;;;14.40;8.80;;;7.60;99.90;;;;;;5083182;28;20031;-82
2021/04/23 02:31:24;;;;;;;17.20;9.07;;;7.50;99.90;;;;;;5081945;28;20040;-82
2021/04/23 02:34:03;;;;;;;15.68;8.77;;;7.40;99.90;;;;;;5055104;28;20028;-81
2021/04/23 02:36:29;;;;;;;15.93;8.10;;;7.40;99.90;;;;;;5069711;28;20037;-82
2021/04/23 02:38:55;;;;;;;13.48;7.85;;;7.30;99.90;;;;;;5051382;28;20136;-81
2021/04/23 02:41:21;;;;;;;16.33;7.88;;;7.40;99.90;;;;;;5088977;28;20040;-81
2021/04/23 02:43:51;;;;;;;13.65;7.60;;;7.40;99.90;;;;;;5089229;28;20035;-81
2021/04/23 02:46:18;;;;;;;13.18;7.15;;;7.40;99.90;;;;;;5053078;28;20044;-81
2021/04/23 02:48:45;;;;;;;16.88;7.10;;;7.40;99.90;;;;;;5058314;28;20506;-82
2021/04/23 02:51:25;;;;;;;13.55;7.18;;;7.40;99.90;;;;;;5071463;28;20133;-82
2021/04/23 02:53:51;;;;;;;14.63;7.82;;;7.30;99.90;;;;;;5071212;28;20028;-82
2021/04/23 02:56:19;;;;;;;12.90;7.97;;;7.20;99.90;;;;;;5070953;28;20049;-81
2021/04/23 02:58:46;;;;;;;14.93;7.03;;;7.20;99.90;;;;;;5067669;28;20035;-82
2021/04/23 03:01:18;;;;;;;11.05;6.50;;;7.10;99.90;;;;;;5051574;28;20433;-82
2021/04/23 03:03:44;;;;;;;13.27;5.60;;;7.10;99.90;;;;;;5051469;28;20040;-82
2021/04/23 03:06:11;;;;;;;15.13;7.03;;;7.10;99.90;;;;;;5073044;28;20053;-82
2021/04/23 03:08:36;;;;;;;12.38;6.88;;;7.10;99.90;;;;;;5067418;28;20028;-81
2021/04/23 03:11:12;;;;;;;11.50;7.00;;;7.10;99.90;;;;;;5071128;28;20040;-82
2021/04/23 03:13:40;;;;;;;10.45;5.75;;;7.10;99.90;;;;;;5056328;28;20119;-81
2021/04/23 03:16:07;;;;;;;9.93;6.47;;;7.00;99.90;;;;;;5069073;28;20051;-82
2021/04/23 03:18:34;;;;;;;17.50;7.43;;;7.00;99.90;;;;;;5070911;28;20025;-81
2021/04/23 03:21:02;;;;;;;13.88;7.38;;;7.00;99.90;;;;;;5070899;28;20036;-81
2021/04/23 03:23:29;;;;;;;12.32;7.35;;;6.90;99.90;;;;;;5082082;28;20035;-81
2021/04/23 03:25:55;;;;;;;14.65;8.50;;;6.80;99.90;;;;;;5063875;28;20054;-81
2021/04/23 03:28:21;;;;;;;13.65;7.82;;;6.90;99.90;;;;;;5072502;28;20119;-81
2021/04/23 03:30:47;;;;;;;20.58;8.27;;;6.90;99.90;;;;;;5082569;28;20070;-81
2021/04/23 03:33:15;;;;;;;16.35;7.88;;;6.80;99.90;;;;;;5084938;28;20039;-81
2021/04/23 03:35:49;;;;;;;17.67;8.43;;;6.80;99.90;;;;;;5077817;28;20096;-81
2021/04/23 03:38:15;;;;;;;14.98;6.70;;;6.80;99.90;;;;;;5070598;28;20052;-81
2021/04/23 03:40:43;;;;;;;12.80;6.80;;;6.80;99.90;;;;;;5077415;28;20048;-81
2021/04/23 03:43:09;;;;;;;19.92;7.18;;;6.80;99.90;;;;;;5092936;28;20032;-81
2021/04/23 03:45:36;;;;;;;17.92;7.45;;;6.80;99.90;;;;;;5078206;28;20021;-81
2021/04/23 03:48:03;;;;;;;12.43;7.40;;;6.70;99.90;;;;;;5072434;28;20024;-81
2021/04/23 03:50:31;;;;;;;15.82;7.75;;;6.70;99.90;;;;;;5073184;28;20035;-81
2021/04/23 03:52:58;;;;;;;13.82;6.25;;;6.70;99.90;;;;;;5081873;28;20025;-81
2021/04/23 03:55:29;;;;;;;14.55;7.30;;;6.70;99.90;;;;;;5070767;28;20067;-82
2021/04/23 03:57:56;;;;;;;14.98;8.15;;;6.60;99.90;;;;;;5082010;28;20063;-81
2021/04/23 04:00:31;;;;;;;18.33;8.90;;;6.50;99.90;;;;;;5070728;28;20021;-81
2021/04/23 04:02:57;;;;;;;13.93;7.50;;;6.60;99.90;;;;;;5090569;28;20028;-81
2021/04/23 04:05:22;;;;;;;12.57;7.10;;;6.60;99.90;;;;;;5075685;28;20016;-81
2021/04/23 04:07:49;;;;;;;14.45;6.68;;;6.60;99.90;;;;;;5084934;28;20051;-80
2021/04/23 04:10:16;;;;;;;12.48;7.25;;;6.60;99.90;;;;;;5071855;28;20094;-81
2021/04/23 04:12:42;;;;;;;14.57;7.70;;;6.50;99.90;;;;;;5089533;28;20044;-81
2021/04/23 04:15:09;;;;;;;17.23;7.18;;;6.50;99.90;;;;;;5082813;28;20058;-81
2021/04/23 04:17:34;;;;;;;16.38;7.40;;;6.60;99.90;;;;;;5084148;28;20044;-81
2021/04/23 04:20:00;;;;;;;15.82;8.20;;;6.60;99.90;;;;;;5090441;28;20028;-81
2021/04/23 04:22:26;;;;;;;16.27;7.90;;;6.60;99.90;;;;;;5079916;28;20032;-81
2021/04/23 04:24:52;;;;;;;13.27;7.00;;;6.60;99.90;;;;;;5083005;28;20381;-82
2021/04/23 04:27:18;;;;;;;15.95;8.23;;;6.50;99.90;;;;;;5089845;28;20050;-82
2021/04/23 04:29:46;;;;;;;14.30;7.40;;;6.40;99.90;;;;;;5080717;28;20099;-82
2021/04/23 04:32:11;;;;;;;14.73;7.13;;;6.40;99.90;;;;;;5055945;28;20040;-81
2021/04/23 04:34:37;;;;;;;19.35;7.47;;;6.40;99.90;;;;;;5053029;28;20034;-81
2021/04/23 04:37:03;;;;;;;14.40;7.35;;;6.30;99.90;;;;;;5053192;28;20140;-82
2021/04/23 04:39:29;;;;;;;12.95;7.80;;;6.30;99.90;;;;;;5056791;28;20031;-81
2021/04/23 04:41:54;;;;;;;14.18;7.45;;;6.30;99.90;;;;;;5073258;28;20560;-82
2021/04/23 04:44:20;;;;;;;18.50;8.02;;;6.30;99.90;;;;;;5089618;28;20016;-81
2021/04/23 04:46:46;;;;;;;16.00;7.03;;;6.30;99.90;;;;;;5073541;28;20606;-81
2021/04/23 04:49:12;;;;;;;13.93;7.22;;;6.30;99.90;;;;;;5073109;28;20036;-82
2021/04/23 04:51:38;;;;;;;13.50;6.78;;;6.30;99.90;;;;;;5072445;28;20067;-82
2021/04/23 04:54:04;;;;;;;16.50;7.35;;;6.30;99.90;;;;;;5079053;28;20480;-82
2021/04/23 04:56:31;;;;;;;12.63;7.55;;;6.30;99.90;;;;;;5085127;28;20059;-81
2021/04/23 04:58:57;;;;;;;14.65;6.88;;;6.30;99.90;;;;;;5071020;28;20028;-82
2021/04/23 05:01:23;;;;;;;16.08;7.85;;;6.30;99.90;;;;;;5070290;28;20059;-82
2021/04/23 05:03:49;;;;;;;15.60;7.85;;;6.30;99.90;;;;;;5091777;28;20028;-81
2021/04/23 05:06:15;;;;;;;13.10;7.45;;;6.20;99.90;;;;;;5065004;28;20146;-82
2021/04/23 05:08:41;;;;;;;12.30;6.93;;;6.20;99.90;;;;;;5052518;28;20055;-82
2021/04/23 05:11:07;;;;;;;14.65;8.25;;;6.30;99.90;;;;;;5056811;28;20047;-82
2021/04/23 05:13:32;;;;;;;15.07;8.48;;;6.30;99.90;;;;;;5061422;28;20425;-81
2021/04/23 05:15:59;;;;;;;15.77;8.25;;;6.30;99.90;;;;;;5067159;28;20044;-82
2021/04/23 05:18:25;;;;;;;16.52;8.48;;;6.30;99.90;;;;;;5060906;28;20024;-81
2021/04/23 05:20:50;;;;;;;13.75;8.23;;;6.30;99.90;;;;;;5067574;28;20051;-82
2021/04/23 05:23:16;;;;;;;16.40;8.38;;;6.20;99.90;;;;;;5068483;28;20457;-81
2021/04/23 05:25:42;;;;;;;20.02;9.82;;;6.30;99.90;;;;;;5070849;28;20169;-82
2021/04/23 05:28:07;;;;;;;22.55;8.82;;;6.30;99.90;;;;;;5072277;28;20028;-82
2021/04/23 05:30:35;;;;;;;20.50;8.15;;;6.30;99.90;;;;;;5076199;28;20056;-82
2021/04/23 05:33:04;;;;;;;19.63;8.48;;;6.60;99.90;;;;;;5085667;28;20036;-82
2021/04/23 05:35:30;;;;;;;19.52;8.40;;;6.90;99.90;;;;;;5068837;28;20028;-83
2021/04/23 05:37:56;;;;;;;20.33;8.38;;;7.20;99.90;;;;;;5069421;28;20837;-82
2021/04/23 05:40:27;;;;;;;21.48;9.18;;;7.50;99.90;;;;;;5068769;28;20024;-81
2021/04/23 05:42:53;;;;;;;17.50;8.70;;;7.80;99.90;;;;;;5070509;28;20103;-82
2021/04/23 05:45:20;;;;;;;23.65;8.35;;;8.20;99.90;;;;;;5079954;28;20023;-83
2021/04/23 05:47:46;;;;;;;19.88;8.25;;;8.40;99.90;;;;;;5085695;28;20527;-82
2021/04/23 05:50:13;;;;;;;13.30;6.75;;;8.70;99.90;;;;;;5090250;28;20111;-83
2021/04/23 05:52:41;;;;;;;16.55;8.35;;;9.00;99.90;;;;;;5068337;28;20043;-83
2021/04/23 05:55:09;;;;;;;16.30;7.85;;;9.10;99.90;;;;;;5088838;28;20119;-82
2021/04/23 05:57:35;;;;;;;14.02;7.07;;;9.20;99.90;;;;;;5080767;28;20043;-83
2021/04/23 06:00:01;;;;;;;13.93;6.43;;;9.30;99.90;;;;;;5088605;28;20016;-82
2021/04/23 06:02:28;;;;;;;12.27;5.80;;;9.50;99.90;;;;;;5089027;28;20111;-82
2021/04/23 06:04:54;;;;;;;19.92;6.85;;;9.70;99.90;;;;;;5073131;28;20020;-82
2021/04/23 06:07:20;;;;;;;12.13;6.10;;;10.00;99.90;;;;;;5069717;28;20040;-82
2021/04/23 06:09:46;;;;;;;17.65;6.80;;;10.30;99.90;;;;;;5080645;28;20107;-82
2021/04/23 06:12:11;;;;;;;14.23;6.88;;;10.50;99.90;;;;;;5083148;28;20397;-82
2021/04/23 06:14:37;;;;;;;13.13;8.25;;;10.70;99.90;;;;;;5072197;28;20032;-82
2021/04/23 06:17:04;;;;;;;15.35;7.50;;;10.80;99.90;;;;;;5081129;28;20093;-82
2021/04/23 06:19:31;;;;;;;16.25;7.95;;;10.80;99.90;;;;;;5081470;28;20050;-82
2021/04/23 06:21:57;;;;;;;19.45;8.10;;;10.80;99.90;;;;;;5085208;28;20123;-82
2021/04/23 06:24:22;;;;;;;14.23;7.32;;;11.00;99.90;;;;;;5081028;28;20430;-82
2021/04/23 06:26:48;;;;;;;13.15;7.03;;;11.00;99.90;;;;;;5081514;28;20040;-82
2021/04/23 06:29:14;;;;;;;13.13;6.65;;;11.10;99.90;;;;;;5083826;28;20052;-82
2021/04/23 06:31:39;;;;;;;17.70;7.55;;;11.30;99.90;;;;;;5084097;28;20040;-82
2021/04/23 06:34:05;;;;;;;16.90;7.75;;;11.40;99.90;;;;;;5085300;28;20028;-82
2021/04/23 06:36:30;;;;;;;13.57;6.63;;;11.40;99.90;;;;;;5072232;28;20044;-82
2021/04/23 06:38:56;;;;;;;15.20;6.75;;;11.40;99.90;;;;;;5078027;28;20457;-82
2021/04/23 06:41:22;;;;;;;14.65;7.28;;;11.50;99.90;;;;;;5087804;28;20681;-82
2021/04/23 06:43:48;;;;;;;12.07;5.88;;;11.60;99.90;;;;;;5081738;28;20794;-82
2021/04/23 06:46:14;;;;;;;20.58;6.60;;;11.90;99.90;;;;;;5078409;28;20043;-83
2021/04/23 06:48:41;;;;;;;12.70;6.20;;;11.50;99.90;;;;;;5079035;28;20016;-83
2021/04/23 06:51:07;;;;;;;12.60;5.63;;;11.70;99.90;;;;;;5076912;28;20051;-83
2021/04/23 06:53:32;;;;;;;11.68;6.22;;;11.80;99.90;;;;;;5085108;28;20024;-83
2021/04/23 06:56:01;;;;;;;15.07;7.18;;;11.90;99.90;;;;;;5087975;28;20123;-83
2021/04/23 06:58:27;;;;;;;19.58;7.93;;;12.10;99.90;;;;;;5087759;28;20035;-83
2021/04/23 07:00:52;;;;;;;12.25;7.25;;;12.30;99.90;;;;;;5088387;28;20032;-83
2021/04/23 07:03:18;;;;;;;13.60;7.32;;;12.20;99.90;;;;;;5087298;28;20022;-82
2021/04/23 07:05:45;;;;;;;15.30;7.20;;;12.50;99.90;;;;;;5086813;28;20054;-83
2021/04/23 07:08:11;;;;;;;13.40;6.63;;;12.60;99.90;;;;;;5088638;28;20052;-82
2021/04/23 07:10:37;;;;;;;15.10;6.38;;;12.80;99.90;;;;;;5080568;28;20425;-82
2021/04/23 07:13:04;;;;;;;10.85;6.22;;;13.20;99.90;;;;;;5084971;28;20428;-82
2021/04/23 07:15:31;;;;;;;16.65;6.38;;;13.40;99.90;;;;;;5085852;28;20186;-82
2021/04/23 07:17:57;;;;;;;17.13;7.57;;;13.20;99.90;;;;;;5087356;28;20035;-82
2021/04/23 07:20:24;;;;;;;17.65;6.95;;;13.10;99.90;;;;;;5091869;28;20378;-82
2021/04/23 07:22:51;;;;;;;18.58;7.32;;;12.70;99.90;;;;;;5088866;28;20024;-82
2021/04/23 07:25:18;;;;;;;18.25;6.57;;;12.90;99.90;;;;;;5088830;28;20042;-82
2021/04/23 07:27:44;;;;;;;10.93;6.03;;;12.80;99.90;;;;;;5089886;28;20035;-82
2021/04/23 07:30:20;;;;;;;10.20;5.82;;;13.60;99.90;;;;;;5085711;28;20059;-83
2021/04/23 07:32:47;;;;;;;15.40;6.65;;;13.70;99.90;;;;;;5092858;28;20074;-82
2021/04/23 07:35:13;;;;;;;16.08;6.38;;;13.60;99.90;;;;;;5091083;28;20074;-82
2021/04/23 07:37:39;;;;;;;11.52;6.70;;;13.40;99.90;;;;;;5082430;28;20029;-82
2021/04/23 07:40:07;;;;;;;12.48;6.57;;;13.50;99.90;;;;;;5077847;28;20584;-82
2021/04/23 07:42:33;;;;;;;13.70;6.95;;;13.30;99.90;;;;;;5075022;28;20067;-82
2021/04/23 07:44:59;;;;;;;17.67;6.45;;;12.80;99.90;;;;;;5090429;28;20051;-82
2021/04/23 07:47:24;;;;;;;13.07;5.65;;;13.10;99.90;;;;;;5082926;28;20070;-82
2021/04/23 07:49:50;;;;;;;10.52;6.15;;;13.50;99.90;;;;;;5088880;28;20028;-82
2021/04/23 07:52:16;;;;;;;11.63;6.63;;;13.50;99.90;;;;;;5076330;28;20779;-82
2021/04/23 07:54:42;;;;;;;13.65;6.95;;;14.20;99.90;;;;;;5086530;28;20468;-82
2021/04/23 07:57:11;;;;;;;10.60;6.10;;;14.60;99.90;;;;;;5085713;28;20032;-82
2021/04/23 07:59:38;;;;;;;9.77;6.50;;;14.40;99.90;;;;;;5084301;28;20032;-82
2021/04/23 08:02:06;;;;;;;12.40;7.32;;;14.80;99.90;;;;;;5076665;28;20235;-82
2021/04/23 08:04:33;;;;;;;9.48;6.20;;;14.50;99.00;;;;;;5099854;28;20025;-82
2021/04/23 08:06:59;;;;;;;10.60;7.93;;;14.20;99.20;;;;;;5083746;28;20040;-83
2021/04/23 08:09:25;;;;;;;10.82;7.57;;;14.00;99.90;;;;;;5091595;28;20048;-82
2021/04/23 08:11:51;;;;;;;11.85;8.05;;;13.70;99.90;;;;;;5088862;28;20036;-82
2021/04/23 08:14:16;;;;;;;20.17;7.38;;;13.40;99.90;;;;;;5086689;28;20047;-83
2021/04/23 08:16:42;;;;;;;12.68;7.97;;;13.60;99.90;;;;;;5084181;28;20048;-82
2021/04/23 08:19:08;;;;;;;14.85;7.38;;;13.90;99.90;;;;;;5085865;28;20020;-82
2021/04/23 08:21:33;;;;;;;11.45;7.28;;;14.70;99.60;;;;;;5081050;28;20054;-82
2021/04/23 08:23:59;;;;;;;13.65;7.47;;;15.00;98.50;;;;;;5076271;28;20174;-82
2021/04/23 08:26:25;;;;;;;13.45;8.57;;;14.80;98.50;;;;;;5081514;28;20040;-82
2021/04/23 08:28:51;;;;;;;13.80;7.72;;;14.50;97.90;;;;;;5075431;28;20033;-82
2021/04/23 08:31:17;;;;;;;11.93;7.13;;;14.10;98.60;;;;;;5090007;28;20036;-82
2021/04/23 08:33:42;;;;;;;11.70;7.85;;;14.50;99.90;;;;;;5079075;28;20067;-82
2021/04/23 08:36:09;;;;;;;11.48;6.97;;;14.50;99.00;;;;;;5091199;28;20377;-82
2021/04/23 08:38:35;;;;;;;11.63;7.15;;;14.40;99.10;;;;;;5090958;28;20039;-82
2021/04/23 08:41:01;;;;;;;15.85;7.20;;;15.10;99.70;;;;;;5073211;28;20362;-82
2021/04/23 08:43:27;;;;;;;14.82;8.40;;;15.60;97.70;;;;;;5076529;28;20047;-82
2021/04/23 08:45:52;;;;;;;11.50;7.18;;;15.90;97.10;;;;;;5085949;28;20036;-82
2021/04/23 08:48:20;;;;;;;13.32;8.27;;;16.00;97.30;;;;;;5070215;28;20495;-82
2021/04/23 08:50:47;;;;;;;12.88;8.18;;;16.10;96.30;;;;;;5077305;28;20032;-82
2021/04/23 08:53:12;;;;;;;13.90;8.68;;;15.80;96.30;;;;;;5088985;28;20477;-82
2021/04/23 08:55:38;;;;;;;16.15;9.43;;;15.30;96.10;;;;;;5068351;28;20024;-82
2021/04/23 08:58:05;;;;;;;15.77;9.05;;;14.80;97.20;;;;;;5072242;28;20039;-82
2021/04/23 09:00:31;;;;;;;13.63;8.13;;;14.80;97.90;;;;;;5068402;28;20031;-82
2021/04/23 09:02:57;;;;;;;13.93;9.35;;;15.50;98.20;;;;;;5054708;28;20032;-83
2021/04/23 09:05:22;;;;;;;14.52;8.80;;;15.80;98.20;;;;;;5076934;28;20028;-82
2021/04/23 09:08:03;;;;;;;17.42;9.43;;;15.10;97.40;;;;;;5075837;28;20042;-80
2021/04/23 09:10:30;;;;;;;16.13;9.35;;;15.20;97.10;;;;;;5089694;28;20124;-82
2021/04/23 09:13:16;;;;;;;17.77;8.13;;;15.50;96.60;;;;;;5090309;28;20465;-82
2021/04/23 09:15:44;;;;;;;12.20;7.22;;;15.90;96.80;;;;;;5078328;28;20024;-82
2021/04/23 09:18:21;;;;;;;17.02;8.30;;;15.30;96.60;;;;;;5082319;28;20024;-82
2021/04/23 09:20:49;;;;;;;11.35;7.50;;;15.40;95.90;;;;;;5086139;28;20047;-81
2021/04/23 09:23:22;;;;;;;12.80;7.13;;;15.90;96.10;;;;;;5085463;28;20839;-82
2021/04/23 09:25:50;;;;;;;11.57;6.43;;;15.50;95.00;;;;;;5079304;28;20121;-81
2021/04/23 09:28:40;;;;;;;12.40;7.30;;;16.00;95.70;;;;;;5088640;28;20053;-82
2021/04/23 09:31:33;;;;;;;12.98;6.93;;;15.80;94.90;;;;;;5089303;28;20054;-82
2021/04/23 09:34:00;;;;;;;10.85;7.05;;;15.30;95.90;;;;;;5083161;28;20481;-82
2021/04/23 09:36:31;;;;;;;18.63;7.65;;;16.20;96.20;;;;;;5084235;28;21095;-82
2021/04/23 09:39:09;;;;;;;12.43;8.07;;;15.80;95.90;;;;;;5080189;28;20027;-82
2021/04/23 09:41:36;;;;;;;11.20;6.70;;;15.70;95.30;;;;;;5084920;28;20059;-82
2021/04/23 09:44:03;;;;;;;12.68;8.38;;;15.40;96.70;;;;;;5090906;28;20020;-82
2021/04/23 09:46:36;;;;;;;12.32;8.05;;;15.60;96.20;;;;;;5079902;28;20038;-82
2021/04/23 09:49:19;;;;;;;13.25;8.82;;;16.10;96.10;;;;;;5089549;28;20175;-81
2021/04/23 09:51:46;;;;;;;18.00;9.90;;;15.70;95.90;;;;;;5084589;28;20489;-82
2021/04/23 09:54:23;;;;;;;13.60;8.73;;;15.70;96.60;;;;;;5088977;28;20024;-82
2021/04/23 09:56:50;;;;;;;18.52;9.35;;;15.90;96.40;;;;;;5086444;28;20097;-82
2021/04/23 09:59:30;;;;;;;22.48;10.82;;;15.60;96.50;;;;;;5063797;28;20036;-82
2021/04/23 10:02:02;;;;;;;13.10;8.27;;;15.80;96.70;;;;;;5072776;28;20025;-82
2021/04/23 10:04:33;;;;;;;11.43;8.23;;;15.90;96.10;;;;;;5064533;28;20029;-82
2021/04/23 10:07:12;;;;;;;13.55;8.20;;;15.90;95.40;;;;;;5077447;28;20469;-82
2021/04/23 10:09:53;;;;;;;27.00;13.48;;;15.90;95.70;;;;;;5080642;28;20494;-82
2021/04/23 10:12:43;;;;;;;17.27;8.43;;;16.20;94.80;;;;;;5065457;28;20037;-82
2021/04/23 10:15:39;;;;;;;21.70;7.70;;;16.40;95.00;;;;;;5060165;28;20031;-82
2021/04/23 10:18:07;;;;;;;13.48;7.70;;;16.70;94.20;;;;;;5061018;28;20054;-82
2021/04/23 10:20:43;;;;;;;9.63;6.63;;;16.50;94.20;;;;;;5089521;28;20039;-83
2021/04/23 10:23:10;;;;;;;11.43;6.40;;;16.80;93.00;;;;;;5079640;28;20559;-83
2021/04/23 10:25:37;;;;;;;11.95;6.95;;;17.00;93.30;;;;;;5090013;28;20115;-82
2021/04/23 10:28:08;;;;;;;13.55;7.13;;;17.50;92.70;;;;;;5090292;28;20020;-83
2021/04/23 10:30:35;;;;;;;13.75;7.63;;;17.60;93.40;;;;;;5070373;28;20595;-82
2021/04/23 10:33:04;;;;;;;13.70;7.75;;;17.30;91.50;;;;;;5087766;28;20028;-82
2021/04/23 10:35:30;;;;;;;12.00;7.07;;;17.10;92.10;;;;;;5064519;28;20342;-82
2021/04/23 10:38:08;;;;;;;12.18;7.07;;;17.20;91.50;;;;;;5079697;28;20035;-83
2021/04/23 10:40:35;;;;;;;19.15;7.70;;;17.50;91.50;;;;;;5085851;28;20024;-82
2021/04/23 10:43:08;;;;;;;10.88;6.30;;;16.90;91.90;;;;;;5093185;28;20024;-82
2021/04/23 10:45:45;;;;;;;12.38;7.10;;;17.00;92.30;;;;;;5091028;28;20058;-83
2021/04/23 10:48:13;;;;;;;12.00;6.85;;;17.10;91.90;;;;;;5084712;28;20129;-82
2021/04/23 10:50:45;;;;;;;16.70;7.65;;;16.80;91.80;;;;;;5077773;28;20111;-82
2021/04/23 10:53:31;;;;;;;;;;;17.20;91.90;;;;;;5083764;28;20074;-82
2021/04/23 10:55:59;;;;;;;9.23;6.63;;;17.30;91.50;;;;;;5087434;28;19938;-82
2021/04/23 10:58:25;;;;;;;11.80;7.38;;;17.30;91.80;;;;;;5088840;28;20038;-82
2021/04/23 11:00:51;;;;;;;11.05;6.65;;;17.50;91.70;;;;;;5089742;28;20411;-82
2021/04/23 11:03:30;;;;;;;11.07;6.93;;;17.20;91.10;;;;;;5093070;28;20020;-82
2021/04/23 11:06:04;;;;;;;14.23;8.23;;;17.40;91.50;;;;;;5075295;28;20032;-82
2021/04/23 11:08:33;;;;;;;12.43;7.47;;;17.20;91.40;;;;;;5089847;28;20508;-81
2021/04/23 11:13:29;;;;;;;13.05;6.45;;;17.00;91.20;;;;;;5093144;28;20209;-82
2021/04/23 11:18:51;;;;;;;10.98;6.55;;;17.10;91.90;;;;;;5081918;28;20037;-81
2021/04/23 11:21:43;;;;;;;17.63;7.63;;;17.80;91.20;;;;;;5086852;28;20024;-81
2021/04/23 11:24:17;;;;;;;12.65;6.50;;;17.40;90.40;;;;;;5076226;28;20477;-82
2021/04/23 11:26:58;;;;;;;12.38;5.88;;;17.70;89.60;;;;;;5079665;28;20102;-81
2021/04/23 11:29:26;;;;;;;9.57;5.80;;;17.80;90.20;;;;;;5083628;28;20059;-82
2021/04/23 11:32:17;;;;;;;11.35;6.75;;;17.80;89.60;;;;;;5092826;28;20036;-81
2021/04/23 11:34:53;;;;;;;9.77;5.47;;;17.80;88.60;;;;;;5089148;28;20055;-81
2021/04/23 11:37:20;;;;;;;9.60;6.10;;;17.80;90.20;;;;;;5089942;28;20048;-81
2021/04/23 11:39:57;;;;;;;10.32;6.30;;;18.30;88.50;;;;;;5089959;28;20107;-81
2021/04/23 11:42:24;;;;;;;10.68;5.70;;;18.30;88.40;;;;;;5077751;28;20118;-81
2021/04/23 11:45:07;;;;;;;9.40;5.82;;;18.30;87.90;;;;;;5079182;28;20039;-82
2021/04/23 11:47:39;;;;;;;9.23;5.03;;;18.60;87.40;;;;;;5089979;28;20036;-81
2021/04/23 11:50:13;;;;;;;13.52;6.53;;;18.20;85.80;;;;;;5087586;28;20029;-81
2021/04/23 11:52:42;;;;;;;13.18;5.35;;;18.40;85.50;;;;;;5088321;28;20048;-81
2021/04/23 11:55:15;;;;;;;12.10;5.00;;;18.30;85.60;;;;;;5090639;28;20032;-82
2021/04/23 11:57:43;;;;;;;9.55;5.43;;;18.80;85.60;;;;;;5081612;28;20032;-81
2021/04/23 12:00:20;;;;;;;10.38;5.13;;;18.80;85.70;;;;;;5081339;28;20468;-82
2021/04/23 12:02:55;;;;;;;11.02;5.60;;;18.70;85.00;;;;;;5083908;28;20487;-81
2021/04/23 12:05:32;;;;;;;10.05;5.85;;;18.60;84.00;;;;;;5076864;28;20019;-81
2021/04/23 12:08:22;;;;;;;12.20;5.38;;;18.90;84.00;;;;;;5087694;28;20496;-82
2021/04/23 12:10:50;;;;;;;11.10;5.68;;;19.00;85.40;;;;;;5072930;28;20048;-81
2021/04/23 12:13:25;;;;;;;16.67;5.82;;;18.80;82.30;;;;;;5079842;28;20024;-81
2021/04/23 12:15:54;;;;;;;9.90;5.50;;;18.60;82.10;;;;;;5072477;28;20134;-81
2021/04/23 12:18:20;;;;;;;12.43;5.78;;;19.00;83.50;;;;;;5078074;28;20039;-81
2021/04/23 12:20:49;;;;;;;10.35;5.40;;;19.00;79.90;;;;;;5085461;28;20377;-81
2021/04/23 12:23:17;;;;;;;13.18;5.57;;;19.10;81.10;;;;;;5079537;28;20032;-81
2021/04/23 12:25:48;;;;;;;10.25;4.85;;;19.30;80.00;;;;;;5091430;28;20032;-81
2021/04/23 12:28:32;;;;;;;10.35;5.40;;;19.30;81.10;;;;;;5078508;28;20115;-81
2021/04/23 12:31:06;;;;;;;12.55;5.28;;;19.20;79.20;;;;;;5091755;28;20044;-81
2021/04/23 12:33:39;;;;;;;11.35;5.72;;;19.50;80.10;;;;;;5091342;28;20032;-81
2021/04/23 12:36:21;;;;;;;16.50;5.47;;;19.20;77.70;;;;;;5073461;28;20047;-81
2021/04/23 12:38:59;;;;;;;13.55;5.00;;;19.10;77.50;;;;;;5071493;28;20052;-81
2021/04/23 12:41:30;;;;;;;10.63;5.30;;;18.80;79.10;;;;;;5082874;28;20031;-81
2021/04/23 12:43:59;;;;;;;15.13;5.05;;;19.00;78.90;;;;;;5082743;28;20028;-81
2021/04/23 12:46:31;;;;;;;10.80;5.43;;;19.20;77.80;;;;;;5090446;28;20376;-81
2021/04/23 12:49:02;;;;;;;;;;;19.10;77.10;;;;;;5074549;28;20107;-81
2021/04/23 12:51:29;;;;;;;13.45;5.63;;;19.00;77.20;;;;;;5087366;28;19916;-81
2021/04/23 12:53:56;;;;;;;11.57;5.80;;;19.20;77.80;;;;;;5073900;28;20098;-81
2021/04/23 12:56:24;;;;;;;11.20;4.82;;;19.30;77.60;;;;;;5069962;28;20389;-81